createdAt,value
2023-07-24T00:00:59.971Z,18.59
2023-07-24T00:03:26.457Z,18.57
2023-07-24T00:05:52.919Z,18.50
2023-07-24T00:08:19.396Z,18.46
2023-07-24T00:10:51.051Z,18.44
2023-07-24T00:13:17.571Z,18.44
2023-07-24T00:15:44.174Z,18.45
2023-07-24T00:18:14.158Z,18.47
2023-07-24T00:20:43.685Z,18.43
2023-07-24T00:23:16.539Z,18.42
2023-07-24T00:25:45.851Z,18.41
2023-07-24T00:28:20.462Z,18.32
2023-07-24T00:30:46.946Z,18.25
2023-07-24T00:33:13.377Z,18.21
2023-07-24T00:35:43.831Z,18.14
2023-07-24T00:38:10.365Z,18.11
2023-07-24T00:40:45.440Z,18.05
2023-07-24T00:43:14.670Z,18.02
2023-07-24T00:45:43.906Z,17.99
2023-07-24T00:48:11.074Z,18.00
2023-07-24T00:50:38.728Z,17.99
2023-07-24T00:53:06.005Z,17.99
2023-07-24T00:55:43.174Z,17.98
2023-07-24T00:58:21.830Z,17.97
2023-07-24T01:00:48.292Z,17.96
2023-07-24T01:03:17.738Z,17.95
2023-07-24T01:05:47.253Z,17.93
2023-07-24T01:08:14.736Z,17.93
2023-07-24T01:10:42.285Z,17.93
2023-07-24T01:13:24.409Z,17.92
2023-07-24T01:16:06.352Z,17.92
2023-07-24T01:18:47.584Z,17.90
2023-07-24T01:21:18.275Z,17.93
2023-07-24T01:24:13.606Z,17.95
2023-07-24T01:26:40.303Z,17.93
2023-07-24T01:29:12.722Z,17.92
2023-07-24T01:31:39.278Z,17.93
2023-07-24T01:34:05.840Z,17.94
2023-07-24T01:36:36.318Z,17.93
2023-07-24T01:39:02.959Z,17.93
2023-07-24T01:41:29.911Z,17.93
2023-07-24T01:44:00.151Z,17.93
2023-07-24T01:46:29.710Z,17.91
2023-07-24T01:49:00.011Z,17.92
2023-07-24T01:51:30.227Z,17.91
2023-07-24T01:53:56.675Z,17.89
2023-07-24T01:56:26.603Z,17.82
2023-07-24T01:58:55.891Z,17.79
2023-07-24T02:01:35.300Z,17.75
2023-07-24T02:04:02.359Z,17.72
2023-07-24T02:06:32.847Z,17.72
2023-07-24T02:08:59.241Z,17.76
2023-07-24T02:11:25.708Z,17.79
2023-07-24T02:13:56.217Z,17.82
2023-07-24T02:16:25.563Z,17.85
2023-07-24T02:24:22.817Z,17.79
2023-07-24T02:26:49.329Z,17.79
2023-07-24T02:29:15.899Z,17.78
2023-07-24T02:31:46.051Z,17.74
2023-07-24T02:34:12.512Z,17.73
2023-07-24T02:36:47.437Z,17.74
2023-07-24T02:39:16.747Z,17.74
2023-07-24T02:41:50.695Z,17.74
2023-07-24T02:44:19.946Z,17.73
2023-07-24T02:46:52.755Z,17.75
2023-07-24T02:49:22.310Z,17.76
2023-07-24T02:52:00.607Z,17.77
2023-07-24T02:54:27.759Z,17.77
2023-07-24T02:56:59.017Z,17.77
2023-07-24T02:59:28.526Z,17.77
2023-07-24T03:01:55.070Z,17.76
2023-07-24T03:04:21.826Z,17.76
2023-07-24T03:06:51.416Z,17.75
2023-07-24T03:09:17.899Z,17.78
2023-07-24T03:11:44.706Z,17.78
2023-07-24T03:14:14.321Z,17.76
2023-07-24T03:16:40.840Z,17.79
2023-07-24T03:19:10.411Z,17.78
2023-07-24T03:21:39.975Z,17.77
2023-07-24T03:24:06.793Z,17.76
2023-07-24T03:26:35.977Z,17.76
2023-07-24T03:29:02.449Z,17.75
2023-07-24T03:31:28.936Z,17.75
2023-07-24T03:33:58.823Z,17.73
2023-07-24T03:36:28.521Z,17.72
2023-07-24T03:38:55.185Z,17.71
2023-07-24T04:32:00.518Z,17.55
2023-07-24T04:34:30.395Z,17.56
2023-07-24T04:36:57.108Z,17.57
2023-07-24T04:39:25.984Z,17.59
2023-07-24T04:41:55.472Z,17.59
2023-07-24T05:36:28.552Z,18.15
2023-07-24T05:38:55.326Z,18.15
2023-07-24T05:41:21.789Z,18.20
2023-07-24T05:46:33.274Z,18.46
2023-07-24T05:49:02.880Z,18.42
2023-07-24T05:51:33.117Z,18.36
2023-07-24T05:54:02.241Z,18.48
2023-07-24T06:47:02.492Z,21.57
2023-07-24T06:49:28.948Z,21.81
2023-07-24T07:42:31.639Z,22.04
2023-07-24T07:44:58.225Z,22.14
2023-07-24T07:47:31.876Z,22.45
2023-07-24T07:50:05.530Z,22.57
2023-07-24T07:52:35.655Z,22.38
2023-07-24T07:55:11.546Z,22.32
2023-07-24T07:57:38.628Z,22.44
2023-07-24T08:00:06.897Z,22.30
2023-07-24T08:02:40.602Z,22.17
2023-07-24T08:05:20.030Z,22.10
2023-07-24T08:07:57.550Z,21.84
2023-07-24T08:10:24.049Z,21.67
2023-07-24T08:12:50.594Z,21.52
2023-07-24T08:15:17.378Z,21.44
2023-07-24T08:17:46.778Z,21.41
2023-07-24T08:20:21.145Z,21.64
2023-07-24T08:22:47.627Z,22.15
2023-07-24T08:25:14.149Z,22.10
2023-07-24T08:28:00.782Z,22.07
2023-07-24T08:30:33.409Z,22.28
2023-07-24T08:33:05.519Z,22.52
2023-07-24T08:35:34.690Z,22.35
2023-07-24T08:38:01.227Z,22.28
2023-07-24T08:40:38.998Z,22.44
2023-07-24T08:43:11.213Z,22.17
2023-07-24T08:45:40.569Z,21.98
2023-07-24T08:48:14.760Z,21.93
2023-07-24T08:50:41.358Z,22.05
2023-07-24T08:53:08.009Z,22.32
2023-07-24T08:55:43.433Z,22.58
2023-07-24T08:58:10.292Z,22.71
2023-07-24T09:00:47.406Z,22.97
2023-07-24T09:03:16.261Z,23.20
2023-07-24T09:05:43.391Z,23.03
2023-07-24T09:08:12.906Z,23.40
2023-07-24T09:10:42.500Z,23.48
2023-07-24T09:13:11.570Z,23.96
2023-07-24T09:15:43.646Z,24.32
2023-07-24T09:18:10.848Z,24.65
2023-07-24T09:20:50.588Z,24.49
2023-07-24T09:23:31.200Z,24.15
2023-07-24T09:26:06.686Z,24.04
2023-07-24T09:28:36.569Z,23.73
2023-07-24T09:31:03.225Z,23.42
2023-07-24T09:33:45.036Z,23.16
2023-07-24T09:36:12.042Z,23.07
2023-07-24T09:38:47.654Z,22.88
2023-07-24T09:41:16.003Z,22.71
2023-07-24T09:43:43.318Z,22.59
2023-07-24T09:46:13.163Z,22.59
2023-07-24T09:49:07.584Z,22.57
2023-07-24T09:51:33.175Z,22.40
2023-07-24T09:54:29.746Z,22.43
2023-07-24T09:57:10.734Z,22.61
2023-07-24T09:59:51.568Z,22.87
2023-07-24T10:02:22.301Z,23.27
2023-07-24T10:04:51.697Z,23.47
2023-07-24T10:07:22.785Z,23.39
2023-07-24T10:09:53.541Z,23.38
2023-07-24T10:12:24.633Z,23.20
2023-07-24T10:14:51.617Z,23.12
2023-07-24T10:17:41.947Z,23.16
2023-07-24T10:20:10.604Z,23.32
2023-07-24T10:22:44.604Z,23.81
2023-07-24T10:25:12.360Z,24.27
2023-07-24T10:27:51.972Z,24.34
2023-07-24T10:30:35.438Z,23.74
2023-07-24T10:33:19.396Z,23.30
2023-07-24T10:38:19.172Z,22.96
2023-07-24T10:40:53.209Z,22.85
2023-07-24T10:43:21.729Z,23.07
2023-07-24T10:45:56.216Z,23.28
2023-07-24T10:48:27.100Z,23.81
2023-07-24T10:50:54.997Z,23.89
2023-07-24T10:53:27.741Z,23.81
2023-07-24T10:55:58.364Z,24.01
2023-07-24T10:58:28.499Z,24.21
2023-07-24T11:00:55.121Z,23.87
2023-07-24T11:03:25.698Z,23.81
2023-07-24T11:05:52.483Z,23.79
2023-07-24T11:08:28.189Z,23.67
2023-07-24T11:10:57.875Z,23.73
2023-07-24T12:04:59.241Z,22.51
2023-07-24T12:07:37.534Z,22.41
2023-07-24T12:10:05.893Z,22.56
2023-07-24T12:12:47.227Z,22.62
2023-07-24T13:06:00.331Z,21.97
2023-07-24T13:08:26.908Z,21.83
2023-07-24T13:10:56.142Z,21.70
2023-07-24T13:13:25.734Z,21.68
2023-07-24T13:15:52.244Z,21.74
2023-07-24T13:18:27.857Z,21.67
2023-07-24T13:20:55.501Z,21.62
2023-07-24T13:23:26.328Z,21.44
2023-07-24T13:25:56.764Z,21.25
2023-07-24T13:28:23.614Z,21.13
2023-07-24T13:30:57.615Z,21.00
2023-07-24T13:33:30.375Z,20.94
2023-07-24T13:35:56.946Z,20.93
2023-07-24T13:38:23.465Z,20.83
2023-07-24T13:43:34.588Z,20.62
2023-07-24T13:46:04.224Z,20.55
2023-07-24T13:48:33.894Z,20.46
2023-07-24T13:51:00.368Z,20.37
2023-07-24T13:53:30.955Z,20.25
2023-07-24T13:58:48.604Z,20.22
2023-07-24T14:01:15.112Z,20.37
2023-07-24T14:03:43.068Z,20.49
2023-07-24T14:06:12.736Z,20.75
2023-07-24T14:08:39.303Z,21.06
2023-07-24T14:11:08.806Z,21.17
2023-07-24T14:13:38.011Z,21.27
2023-07-24T14:16:07.607Z,21.33
2023-07-24T14:18:34.110Z,21.44
2023-07-24T14:21:00.686Z,21.70
2023-07-24T14:23:27.501Z,21.74
2023-07-24T14:25:57.122Z,21.78
2023-07-24T14:28:26.321Z,21.77
2023-07-24T14:33:34.500Z,21.53
2023-07-24T14:36:02.007Z,21.41
2023-07-24T14:38:31.510Z,21.56
2023-07-24T14:40:58.328Z,22.05
2023-07-24T14:43:24.741Z,22.42
2023-07-24T14:45:54.339Z,22.36
2023-07-24T14:48:22.923Z,22.06
2023-07-24T14:50:50.730Z,21.84
2023-07-24T14:53:17.138Z,21.93
2023-07-24T14:55:44.128Z,22.30
2023-07-24T14:58:13.097Z,22.35
2023-07-24T15:00:42.710Z,22.18
2023-07-24T15:03:17.790Z,22.06
2023-07-24T15:05:44.300Z,21.78
2023-07-24T15:08:10.771Z,21.48
2023-07-24T15:10:40.207Z,21.30
2023-07-24T15:13:11.183Z,21.43
2023-07-24T15:18:25.907Z,21.55
2023-07-24T15:20:56.129Z,21.71
2023-07-24T15:23:25.631Z,21.59
2023-07-24T15:25:55.136Z,21.63
2023-07-24T15:28:21.825Z,21.49
2023-07-24T15:30:51.402Z,21.33
2023-07-24T15:33:19.008Z,20.94
2023-07-24T15:35:45.864Z,20.85
2023-07-24T15:38:15.877Z,20.60
2023-07-24T15:40:42.567Z,20.50
2023-07-24T15:43:10.756Z,20.51
2023-07-24T15:45:38.242Z,20.59
2023-07-24T15:48:07.639Z,20.65
2023-07-24T15:50:35.595Z,20.32
2023-07-24T15:53:03.666Z,20.24
2023-07-24T15:55:30.197Z,20.13
2023-07-24T15:57:56.639Z,20.15
2023-07-24T16:00:30.711Z,20.34
2023-07-24T16:02:57.675Z,20.34
2023-07-24T16:05:26.868Z,20.19
2023-07-24T16:07:57.321Z,19.96
2023-07-24T16:10:24.029Z,19.64
2023-07-24T16:12:53.571Z,19.61
2023-07-24T16:15:44.235Z,19.75
2023-07-24T16:18:06.975Z,19.70
2023-07-24T16:20:42.534Z,19.51
2023-07-24T16:23:08.984Z,19.19
2023-07-24T16:25:39.759Z,18.95
2023-07-24T16:28:08.991Z,18.60
2023-07-24T16:30:37.424Z,18.31
2023-07-24T16:33:04.474Z,18.10
2023-07-24T16:35:32.381Z,17.83
2023-07-24T16:38:07.807Z,17.93
2023-07-24T16:40:38.383Z,18.00
2023-07-24T16:48:33.662Z,18.18
2023-07-24T16:51:04.354Z,18.19
2023-07-24T16:53:34.775Z,18.23
2023-07-24T16:56:01.268Z,18.19
2023-07-24T16:58:27.674Z,18.15
2023-07-24T17:01:06.279Z,17.99
2023-07-24T17:03:35.496Z,17.92
2023-07-24T17:06:01.996Z,17.87
2023-07-24T17:08:28.464Z,17.86
2023-07-24T17:10:54.964Z,17.75
2023-07-24T17:13:24.600Z,17.47
2023-07-24T17:15:53.817Z,17.29
2023-07-24T17:18:22.649Z,17.19
2023-07-24T17:20:54.885Z,17.28
2023-07-24T17:23:21.365Z,17.41
2023-07-24T17:25:51.678Z,17.47
2023-07-24T17:28:21.092Z,17.44
2023-07-24T17:30:48.708Z,17.54
2023-07-24T17:33:24.540Z,17.52
2023-07-24T17:36:18.398Z,17.52
2023-07-24T17:38:44.858Z,17.36
2023-07-24T17:41:11.980Z,17.31
2023-07-24T17:43:42.483Z,17.34
2023-07-24T17:46:08.963Z,17.45
2023-07-24T17:48:38.308Z,17.50
2023-07-24T17:51:09.915Z,17.31
2023-07-24T17:53:36.424Z,17.24
2023-07-24T17:56:03.864Z,17.21
2023-07-24T17:58:30.406Z,17.29
2023-07-24T18:00:57.032Z,17.30
2023-07-24T18:03:23.928Z,17.17
2023-07-24T18:05:51.217Z,17.21
2023-07-24T18:08:21.300Z,17.17
2023-07-24T18:10:47.825Z,17.12
2023-07-24T18:13:17.399Z,17.04
2023-07-24T18:15:43.810Z,17.13
2023-07-24T18:18:10.334Z,17.11
2023-07-24T18:20:40.430Z,17.14
2023-07-24T18:23:10.080Z,17.16
2023-07-24T18:25:43.009Z,17.06
2023-07-24T18:28:13.244Z,17.07
2023-07-24T18:30:42.887Z,17.04
2023-07-24T18:33:11.521Z,16.99
2023-07-24T18:35:38.101Z,16.94
2023-07-24T18:38:10.314Z,16.93
2023-07-24T18:40:37.222Z,16.96
2023-07-24T18:43:03.709Z,16.84
2023-07-24T18:45:33.160Z,16.90
2023-07-24T18:48:03.152Z,16.89
2023-07-24T19:40:16.418Z,16.56
2023-07-24T19:42:43.269Z,16.54
2023-07-24T19:45:09.915Z,16.50
2023-07-24T19:47:39.850Z,16.49
2023-07-24T19:50:09.517Z,16.48
2023-07-24T19:52:39.488Z,16.45
2023-07-24T19:55:11.179Z,16.39
2023-07-24T19:57:38.760Z,16.36
2023-07-24T20:00:10.988Z,16.34
2023-07-24T20:02:37.647Z,16.29
2023-07-24T20:05:10.147Z,16.28
2023-07-24T20:07:36.671Z,16.24
2023-07-24T20:10:03.243Z,16.23
2023-07-24T20:12:40.247Z,16.21
2023-07-24T20:15:14.815Z,16.20
2023-07-24T20:17:44.261Z,16.20
2023-07-24T20:20:16.203Z,16.18
2023-07-24T20:22:45.590Z,16.16
2023-07-24T20:25:19.688Z,16.16
2023-07-24T20:27:49.212Z,16.16
2023-07-24T20:30:15.661Z,16.12
2023-07-24T20:32:44.838Z,16.04
2023-07-24T20:35:11.442Z,16.01
2023-07-24T20:37:38.022Z,15.94
2023-07-24T20:40:08.755Z,15.88
2023-07-24T20:42:35.196Z,15.83
2023-07-24T20:45:01.818Z,15.77
2023-07-24T20:50:18.125Z,15.61
2023-07-24T20:52:44.640Z,15.54
2023-07-24T20:55:15.215Z,15.49
2023-07-24T20:57:44.705Z,15.43
2023-07-24T21:00:14.872Z,15.37
2023-07-24T21:02:41.639Z,15.32
2023-07-24T21:05:12.032Z,15.26
2023-07-24T21:07:42.629Z,15.20
2023-07-24T21:10:15.133Z,15.14
2023-07-24T21:12:45.743Z,15.09
2023-07-24T21:15:12.252Z,15.03
2023-07-24T21:17:38.866Z,14.98
2023-07-24T21:20:14.085Z,14.92
2023-07-24T21:22:40.507Z,14.87
2023-07-24T21:25:11.702Z,14.84
2023-07-24T21:27:41.133Z,14.79
2023-07-24T21:30:29.703Z,14.76
2023-07-24T21:33:00.323Z,14.71
2023-07-24T21:35:26.986Z,14.67
2023-07-24T21:37:58.019Z,14.64
2023-07-24T21:40:27.517Z,14.61
2023-07-24T21:45:43.180Z,14.53
2023-07-24T21:48:09.791Z,14.50
2023-07-24T21:50:44.529Z,14.47
2023-07-24T21:53:14.070Z,14.42
2023-07-24T21:55:48.904Z,14.38
2023-07-24T21:58:15.627Z,14.32
2023-07-24T22:00:42.445Z,14.29
2023-07-24T22:03:12.071Z,14.24
2023-07-24T22:05:38.542Z,14.21
2023-07-24T22:08:05.359Z,14.16
2023-07-24T22:10:35.130Z,14.15
2023-07-24T22:13:04.671Z,14.11
2023-07-24T22:15:39.638Z,14.04
2023-07-24T22:18:10.002Z,14.03
2023-07-24T22:28:45.435Z,13.94
2023-07-24T22:31:12.278Z,13.92
2023-07-24T22:33:38.943Z,13.92
2023-07-24T22:36:13.329Z,13.87
2023-07-24T22:38:39.833Z,13.82
2023-07-24T22:41:13.273Z,13.81
2023-07-24T22:43:43.594Z,13.80
2023-07-24T22:46:18.761Z,13.80
2023-07-24T22:48:46.546Z,13.82
2023-07-24T22:51:13.044Z,13.80
2023-07-24T22:53:39.459Z,13.77
2023-07-24T22:56:09.655Z,13.76
2023-07-24T22:59:00.466Z,13.76
2023-07-24T23:01:31.170Z,13.73
2023-07-24T23:04:02.049Z,13.70
2023-07-24T23:06:31.508Z,13.66
2023-07-24T23:08:58.194Z,13.57
2023-07-24T23:11:33.940Z,13.54
2023-07-24T23:14:00.944Z,13.51
2023-07-24T23:16:30.848Z,13.51
2023-07-24T23:18:57.431Z,13.48
2023-07-24T23:21:23.970Z,13.44
2023-07-24T23:23:53.909Z,13.36
2023-07-24T23:26:23.205Z,13.30
2023-07-24T23:28:53.340Z,13.29
2023-07-24T23:31:22.242Z,13.24
2023-07-24T23:33:48.680Z,13.23
2023-07-24T23:36:24.918Z,13.19
2023-07-24T23:38:51.398Z,13.14
2023-07-24T23:41:18.165Z,13.09
2023-07-24T23:43:45.828Z,13.03
2023-07-24T23:46:16.784Z,13.01
2023-07-24T23:48:46.382Z,13.00
2023-07-24T23:51:17.765Z,12.98
2023-07-24T23:53:44.771Z,12.92
2023-07-24T23:56:11.875Z,12.92
2023-07-24T23:58:38.831Z,12.86
